createdAt,value
2024-05-09T00:01:38.222Z,99.90
2024-05-09T00:04:08.854Z,99.90
2024-05-09T00:06:39.183Z,99.90
2024-05-09T00:09:12.121Z,99.90
2024-05-09T00:11:42.498Z,99.90
2024-05-09T00:14:12.810Z,99.90
2024-05-09T00:16:43.176Z,99.90
2024-05-09T00:19:13.511Z,99.90
2024-05-09T00:21:45.803Z,99.90
2024-05-09T00:24:18.763Z,99.90
2024-05-09T00:26:49.150Z,99.90
2024-05-09T00:29:19.327Z,99.90
2024-05-09T00:31:49.800Z,99.90
2024-05-09T00:34:20.162Z,99.90
2024-05-09T00:36:50.709Z,99.90
2024-05-09T00:39:23.552Z,99.90
2024-05-09T00:41:53.728Z,99.90
2024-05-09T00:44:24.080Z,99.90
2024-05-09T00:46:56.308Z,99.90
2024-05-09T00:49:28.468Z,99.90
2024-05-09T00:52:01.495Z,99.90
2024-05-09T00:54:34.566Z,99.90
2024-05-09T00:57:07.353Z,99.90
2024-05-09T00:59:38.588Z,99.90
2024-05-09T01:02:10.078Z,99.90
2024-05-09T01:04:40.495Z,99.90
2024-05-09T01:07:11.715Z,99.90
2024-05-09T01:09:44.665Z,99.90
2024-05-09T01:12:15.098Z,99.90
2024-05-09T01:14:45.712Z,99.90
2024-05-09T01:17:17.058Z,99.90
2024-05-09T01:19:47.687Z,99.90
2024-05-09T01:24:52.135Z,99.90
2024-05-09T01:27:22.391Z,99.90
2024-05-09T01:29:52.672Z,99.90
2024-05-09T01:32:23.047Z,99.90
2024-05-09T01:34:53.402Z,99.90
2024-05-09T01:37:23.735Z,99.90
2024-05-09T01:39:56.598Z,99.90
2024-05-09T01:42:26.854Z,99.90
2024-05-09T01:44:57.052Z,99.90
2024-05-09T01:47:27.384Z,99.90
2024-05-09T01:49:57.710Z,99.90
2024-05-09T01:52:27.939Z,99.90
2024-05-09T01:55:04.660Z,99.90
2024-05-09T01:57:36.764Z,99.90
2024-05-09T02:00:10.416Z,99.90
2024-05-09T02:02:42.160Z,99.90
2024-05-09T02:05:12.592Z,99.90
2024-05-09T02:07:42.989Z,99.90
2024-05-09T02:10:20.487Z,99.90
2024-05-09T02:12:56.466Z,99.90
2024-05-09T02:15:26.833Z,99.90
2024-05-09T02:17:57.411Z,99.90
2024-05-09T02:20:34.043Z,99.90
2024-05-09T02:23:07.684Z,99.90
2024-05-09T02:25:40.814Z,99.90
2024-05-09T02:28:11.465Z,99.90
2024-05-09T02:30:42.616Z,99.90
2024-05-09T02:33:14.486Z,99.90
2024-05-09T02:35:45.526Z,99.90
2024-05-09T02:38:13.678Z,99.90
2024-05-09T02:40:46.711Z,99.90
2024-05-09T02:43:14.353Z,99.90
2024-05-09T02:45:45.287Z,99.90
2024-05-09T02:48:14.052Z,99.90
2024-05-09T02:50:45.156Z,99.90
2024-05-09T02:53:14.271Z,99.90
2024-05-09T02:55:47.621Z,99.90
2024-05-09T02:58:15.349Z,99.90
2024-05-09T03:00:45.651Z,99.90
2024-05-09T03:03:15.314Z,99.90
2024-05-09T03:05:46.999Z,99.90
2024-05-09T03:08:14.979Z,99.90
2024-05-09T03:10:48.049Z,99.90
2024-05-09T03:13:16.381Z,99.90
2024-05-09T03:15:47.023Z,99.90
2024-05-09T03:18:15.732Z,99.90
2024-05-09T03:20:46.500Z,99.90
2024-05-09T03:23:14.218Z,99.90
2024-05-09T03:25:47.231Z,99.90
2024-05-09T03:28:14.987Z,99.90
2024-05-09T03:30:45.164Z,99.90
2024-05-09T03:33:15.656Z,99.90
2024-05-09T03:35:47.162Z,99.90
2024-05-09T03:38:18.012Z,99.90
2024-05-09T03:40:52.502Z,99.90
2024-05-09T03:43:23.664Z,99.90
2024-05-09T03:45:54.039Z,99.90
2024-05-09T03:48:21.793Z,99.90
2024-05-09T03:50:52.295Z,99.90
2024-05-09T03:53:21.165Z,99.90
2024-05-09T03:55:56.977Z,99.90
2024-05-09T04:00:55.197Z,99.90
2024-05-09T04:03:23.203Z,99.90
2024-05-09T04:05:53.617Z,99.90
2024-05-09T04:08:21.454Z,99.90
2024-05-09T04:10:54.450Z,99.90
2024-05-09T04:13:22.086Z,99.90
2024-05-09T04:15:52.356Z,99.90
2024-05-09T04:18:20.227Z,99.90
2024-05-09T04:20:50.646Z,99.90
2024-05-09T04:23:18.260Z,99.90
2024-05-09T04:25:48.674Z,99.90
2024-05-09T04:28:19.651Z,99.90
2024-05-09T04:30:50.124Z,99.90
2024-05-09T04:33:21.240Z,99.90
2024-05-09T04:35:49.629Z,99.90
2024-05-09T04:38:19.927Z,99.90
2024-05-09T04:40:47.725Z,99.90
2024-05-09T04:43:21.522Z,99.90
2024-05-09T04:45:49.172Z,99.90
2024-05-09T04:48:19.779Z,99.90
2024-05-09T04:50:47.676Z,99.90
2024-05-09T04:53:19.708Z,99.90
2024-05-09T04:55:47.635Z,99.90
2024-05-09T04:58:20.603Z,99.90
2024-05-09T05:00:48.266Z,99.90
2024-05-09T05:03:18.716Z,99.90
2024-05-09T05:05:46.934Z,99.90
2024-05-09T05:08:19.487Z,99.90
2024-05-09T05:10:48.927Z,99.90
2024-05-09T05:13:23.969Z,99.90
2024-05-09T05:15:57.765Z,99.90
2024-05-09T05:18:27.643Z,99.90
2024-05-09T05:20:59.780Z,99.90
2024-05-09T05:23:27.622Z,99.90
2024-05-09T05:25:58.235Z,99.90
2024-05-09T05:28:28.574Z,99.90
2024-05-09T05:30:58.899Z,99.90
2024-05-09T05:38:28.124Z,99.90
2024-05-09T05:40:59.020Z,99.90
2024-05-09T05:43:29.729Z,99.90
2024-05-09T05:46:00.001Z,99.90
2024-05-09T05:51:00.409Z,99.90
2024-05-09T05:53:29.551Z,99.90
2024-05-09T05:55:59.948Z,99.90
2024-05-09T05:58:30.678Z,99.90
2024-05-09T06:01:00.931Z,99.90
2024-05-09T06:03:29.542Z,99.90
2024-05-09T06:06:00.081Z,99.90
2024-05-09T06:08:30.292Z,99.90
2024-05-09T06:11:01.059Z,99.90
2024-05-09T06:13:31.351Z,99.90
2024-05-09T06:16:04.935Z,99.90
2024-05-09T06:18:32.710Z,99.90
2024-05-09T06:21:03.354Z,99.90
2024-05-09T06:23:31.042Z,99.90
2024-05-09T06:26:01.454Z,99.90
2024-05-09T06:28:31.683Z,99.90
2024-05-09T06:31:04.352Z,99.90
2024-05-09T06:33:32.404Z,99.90
2024-05-09T06:36:02.964Z,99.90
2024-05-09T06:38:30.715Z,99.90
2024-05-09T06:41:01.253Z,99.90
2024-05-09T06:43:31.609Z,99.90
2024-05-09T06:46:01.906Z,99.90
2024-05-09T06:48:29.746Z,99.90
2024-05-09T06:51:00.975Z,99.90
2024-05-09T06:53:29.056Z,99.90
2024-05-09T06:55:59.484Z,99.90
2024-05-09T06:58:27.271Z,99.90
2024-05-09T07:01:00.310Z,99.90
2024-05-09T07:03:28.008Z,99.90
2024-05-09T07:05:58.394Z,99.90
2024-05-09T07:08:26.065Z,99.90
2024-05-09T07:10:56.782Z,99.90
2024-05-09T07:13:24.438Z,99.90
2024-05-09T07:15:54.748Z,97.70
2024-05-09T07:18:25.145Z,97.40
2024-05-09T07:20:55.520Z,97.10
2024-05-09T07:23:23.155Z,96.50
2024-05-09T07:25:53.642Z,98.10
2024-05-09T07:28:21.725Z,93.30
2024-05-09T07:30:52.007Z,91.30
2024-05-09T07:33:24.549Z,87.70
2024-05-09T07:35:55.465Z,87.90
2024-05-09T07:38:23.356Z,94.10
2024-05-09T07:40:53.693Z,93.20
2024-05-09T07:43:21.520Z,95.30
2024-05-09T07:45:54.414Z,91.80
2024-05-09T07:50:00.288Z,93.00
2024-05-09T07:53:52.113Z,93.50
2024-05-09T07:56:26.056Z,91.10
2024-05-09T07:58:54.439Z,91.20
2024-05-09T08:01:26.506Z,92.80
2024-05-09T08:03:57.806Z,92.70
2024-05-09T08:06:28.939Z,87.50
2024-05-09T08:08:57.850Z,88.90
2024-05-09T08:11:30.100Z,85.20
2024-05-09T08:13:57.657Z,81.30
2024-05-09T08:16:28.807Z,82.20
2024-05-09T08:18:59.237Z,80.80
2024-05-09T08:21:29.833Z,79.40
2024-05-09T08:23:57.618Z,76.50
2024-05-09T08:26:27.890Z,76.60
2024-05-09T08:28:55.462Z,77.00
2024-05-09T08:31:25.827Z,73.90
2024-05-09T08:33:54.702Z,75.10
2024-05-09T08:36:27.721Z,78.60
2024-05-09T08:38:57.138Z,73.20
2024-05-09T08:41:28.673Z,76.00
2024-05-09T08:43:56.366Z,76.10
2024-05-09T08:46:30.388Z,74.80
2024-05-09T08:49:00.867Z,78.10
2024-05-09T08:51:33.979Z,78.40
2024-05-09T08:54:01.632Z,73.40
2024-05-09T08:56:36.667Z,72.70
2024-05-09T08:59:13.572Z,72.20
2024-05-09T09:01:44.769Z,71.00
2024-05-09T09:04:15.885Z,64.40
2024-05-09T09:06:49.549Z,65.20
2024-05-09T09:09:17.498Z,67.40
2024-05-09T09:11:47.651Z,68.50
2024-05-09T09:14:15.240Z,66.10
2024-05-09T09:16:46.066Z,68.90
2024-05-09T09:19:14.781Z,69.30
2024-05-09T09:21:48.500Z,72.00
2024-05-09T09:24:16.204Z,70.80
2024-05-09T09:26:48.795Z,70.30
2024-05-09T09:29:20.713Z,68.50
2024-05-09T09:32:01.525Z,74.60
2024-05-09T09:34:30.391Z,74.40
2024-05-09T09:37:08.335Z,70.00
2024-05-09T09:39:38.583Z,68.40
2024-05-09T09:42:09.421Z,69.80
2024-05-09T09:44:42.112Z,66.90
2024-05-09T09:47:15.330Z,67.40
2024-05-09T09:49:45.582Z,64.10
2024-05-09T09:52:19.246Z,66.50
2024-05-09T09:54:48.780Z,62.00
2024-05-09T09:57:22.819Z,63.90
2024-05-09T09:59:52.636Z,64.10
2024-05-09T10:02:23.147Z,60.20
2024-05-09T10:04:51.719Z,61.40
2024-05-09T10:07:27.662Z,66.00
2024-05-09T10:09:56.511Z,60.50
2024-05-09T10:12:27.338Z,62.90
2024-05-09T10:14:55.279Z,64.80
2024-05-09T10:17:25.727Z,60.10
2024-05-09T10:20:14.373Z,58.30
2024-05-09T10:22:53.813Z,58.10
2024-05-09T10:25:21.791Z,60.10
2024-05-09T10:27:58.449Z,65.20
2024-05-09T10:30:34.078Z,63.40
2024-05-09T10:33:06.620Z,62.40
2024-05-09T10:35:34.163Z,64.30
2024-05-09T10:38:10.979Z,63.80
2024-05-09T10:40:40.138Z,64.30
2024-05-09T10:43:11.937Z,63.40
2024-05-09T10:45:39.686Z,64.00
2024-05-09T10:48:12.034Z,65.00
2024-05-09T10:50:43.844Z,68.80
2024-05-09T10:53:17.372Z,67.40
2024-05-09T10:55:56.530Z,67.80
2024-05-09T10:58:26.919Z,63.20
2024-05-09T11:00:55.780Z,64.20
2024-05-09T11:03:27.413Z,64.60
2024-05-09T11:05:56.306Z,67.40
2024-05-09T11:08:30.448Z,65.80
2024-05-09T11:10:59.684Z,66.40
2024-05-09T11:13:31.143Z,64.80
2024-05-09T11:16:00.056Z,60.80
2024-05-09T11:18:36.690Z,61.50
2024-05-09T11:21:13.997Z,61.60
2024-05-09T11:23:47.117Z,65.50
2024-05-09T11:26:19.330Z,65.20
2024-05-09T11:28:50.888Z,68.40
2024-05-09T11:31:19.166Z,58.60
2024-05-09T11:33:49.713Z,60.00
2024-05-09T11:36:17.564Z,62.60
2024-05-09T11:38:50.478Z,64.00
2024-05-09T11:41:19.115Z,64.50
2024-05-09T11:43:49.446Z,66.50
2024-05-09T11:46:17.242Z,64.80
2024-05-09T11:48:48.284Z,64.40
2024-05-09T11:51:15.989Z,71.00
2024-05-09T11:53:46.148Z,69.20
2024-05-09T11:56:17.585Z,69.40
2024-05-09T11:58:47.879Z,69.90
2024-05-09T12:01:15.472Z,69.30
2024-05-09T12:03:49.390Z,57.50
2024-05-09T12:06:17.663Z,56.80
2024-05-09T12:08:47.863Z,58.10
2024-05-09T12:11:18.056Z,62.40
2024-05-09T12:13:48.366Z,64.50
2024-05-09T12:16:16.399Z,59.10
2024-05-09T12:18:46.942Z,57.50
2024-05-09T12:21:17.490Z,65.30
2024-05-09T12:23:47.767Z,63.10
2024-05-09T12:26:18.082Z,60.10
2024-05-09T12:28:48.435Z,60.60
2024-05-09T12:31:15.966Z,62.60
2024-05-09T12:36:14.367Z,68.20
2024-05-09T12:38:44.583Z,72.70
2024-05-09T12:41:12.196Z,73.90
2024-05-09T12:43:45.120Z,66.50
2024-05-09T12:46:12.997Z,67.00
2024-05-09T12:48:43.501Z,64.30
2024-05-09T12:51:11.263Z,66.30
2024-05-09T12:53:41.659Z,62.40
2024-05-09T12:56:09.714Z,63.00
2024-05-09T12:58:40.628Z,60.40
2024-05-09T13:01:11.017Z,66.50
2024-05-09T13:03:41.300Z,62.50
2024-05-09T13:06:09.169Z,61.30
2024-05-09T13:08:39.820Z,56.80
2024-05-09T13:11:08.352Z,57.60
2024-05-09T13:13:38.681Z,61.20
2024-05-09T13:16:09.775Z,61.70
2024-05-09T13:18:40.581Z,55.50
2024-05-09T13:21:08.317Z,56.50
2024-05-09T13:23:38.646Z,56.90
2024-05-09T13:26:06.258Z,63.10
2024-05-09T13:28:36.769Z,65.10
2024-05-09T13:31:04.615Z,68.80
2024-05-09T13:33:37.928Z,66.20
2024-05-09T13:36:07.252Z,66.70
2024-05-09T13:38:37.470Z,66.10
2024-05-09T13:41:05.365Z,60.60
2024-05-09T13:43:35.629Z,64.90
2024-05-09T13:46:03.915Z,65.30
2024-05-09T13:48:37.373Z,61.60
2024-05-09T13:51:05.877Z,60.30
2024-05-09T13:56:04.460Z,58.30
2024-05-09T13:58:34.858Z,58.40
2024-05-09T14:01:02.513Z,58.50
2024-05-09T14:03:33.095Z,58.50
2024-05-09T14:06:03.847Z,56.80
2024-05-09T14:08:34.634Z,57.70
2024-05-09T14:11:02.516Z,57.90
2024-05-09T14:13:32.934Z,56.80
2024-05-09T14:16:00.828Z,57.60
2024-05-09T14:18:31.874Z,61.70
2024-05-09T14:20:59.620Z,66.50
2024-05-09T14:23:32.748Z,68.10
2024-05-09T14:26:00.349Z,62.80
2024-05-09T14:28:31.146Z,60.60
2024-05-09T14:31:00.488Z,61.70
2024-05-09T14:33:31.677Z,60.40
2024-05-09T14:35:59.554Z,60.40
2024-05-09T14:38:33.089Z,61.30
2024-05-09T14:41:00.799Z,61.40
2024-05-09T14:43:31.714Z,59.50
2024-05-09T14:45:59.516Z,54.20
2024-05-09T14:48:31.042Z,57.60
2024-05-09T14:51:14.172Z,54.30
2024-05-09T14:53:47.139Z,61.70
2024-05-09T14:56:14.954Z,57.10
2024-05-09T14:58:45.342Z,58.10
2024-05-09T15:01:13.002Z,60.30
2024-05-09T15:03:43.350Z,59.90
2024-05-09T15:06:11.074Z,65.30
2024-05-09T15:08:42.143Z,66.00
2024-05-09T15:11:12.531Z,67.50
2024-05-09T15:13:42.897Z,69.50
2024-05-09T15:16:10.678Z,66.10
2024-05-09T15:18:44.152Z,63.00
2024-05-09T15:21:11.974Z,61.20
2024-05-09T15:23:42.641Z,60.90
2024-05-09T15:26:12.928Z,60.40
2024-05-09T15:28:44.146Z,61.90
2024-05-09T15:31:11.795Z,62.30
2024-05-09T15:33:42.766Z,66.10
2024-05-09T15:36:10.917Z,65.80
2024-05-09T15:38:41.942Z,68.70
2024-05-09T15:41:13.517Z,69.40
2024-05-09T15:43:43.680Z,67.90
2024-05-09T15:46:12.160Z,70.50
2024-05-09T15:48:44.823Z,65.40
2024-05-09T15:51:12.775Z,63.10
2024-05-09T15:53:42.916Z,61.60
2024-05-09T15:56:13.432Z,62.60
2024-05-09T15:58:43.797Z,59.90
2024-05-09T16:01:12.676Z,60.30
2024-05-09T16:03:43.186Z,59.40
2024-05-09T16:06:11.012Z,60.30
2024-05-09T16:08:41.673Z,61.30
2024-05-09T16:11:13.302Z,61.90
2024-05-09T16:13:43.575Z,61.00
2024-05-09T16:16:11.563Z,63.20
2024-05-09T16:18:41.894Z,63.50
2024-05-09T16:21:09.740Z,64.70
2024-05-09T16:23:40.942Z,64.80
2024-05-09T16:26:08.500Z,65.40
2024-05-09T16:28:41.426Z,63.60
2024-05-09T16:31:08.986Z,68.00
2024-05-09T16:33:40.472Z,68.50
2024-05-09T16:36:08.568Z,67.90
2024-05-09T16:38:40.060Z,70.00
2024-05-09T16:41:08.745Z,70.60
2024-05-09T16:43:42.030Z,74.60
2024-05-09T16:46:10.014Z,77.50
2024-05-09T16:48:40.905Z,78.00
2024-05-09T16:51:08.917Z,78.80
2024-05-09T16:53:39.183Z,73.20
2024-05-09T16:56:07.828Z,73.60
2024-05-09T16:58:40.945Z,71.40
2024-05-09T17:01:08.798Z,72.00
2024-05-09T17:03:39.256Z,72.80
2024-05-09T17:06:07.408Z,72.10
2024-05-09T17:08:37.908Z,73.10
2024-05-09T17:11:05.773Z,71.60
2024-05-09T17:13:39.333Z,72.50
2024-05-09T17:16:13.664Z,69.60
2024-05-09T17:18:44.200Z,69.70
2024-05-09T17:21:11.796Z,71.80
2024-05-09T17:23:42.551Z,72.40
2024-05-09T17:26:10.603Z,74.10
2024-05-09T17:28:41.012Z,73.70
2024-05-09T17:31:11.450Z,74.20
2024-05-09T17:33:42.872Z,75.10
2024-05-09T17:36:13.319Z,75.80
2024-05-09T17:38:41.073Z,76.40
2024-05-09T17:41:11.380Z,74.70
2024-05-09T17:43:39.001Z,76.80
2024-05-09T17:46:09.902Z,75.30
2024-05-09T17:48:40.385Z,75.90
2024-05-09T17:51:10.640Z,78.90
2024-05-09T17:53:40.130Z,78.80
2024-05-09T17:56:11.221Z,78.60
2024-05-09T17:58:38.930Z,79.30
2024-05-09T18:01:09.304Z,82.80
2024-05-09T18:03:40.061Z,86.40
2024-05-09T18:06:11.315Z,88.30
2024-05-09T18:08:38.868Z,88.80
2024-05-09T18:11:09.706Z,89.70
2024-05-09T18:13:37.651Z,88.10
2024-05-09T18:16:08.954Z,90.20
2024-05-09T18:18:39.524Z,90.50
2024-05-09T18:21:10.062Z,92.20
2024-05-09T18:23:37.633Z,92.50
2024-05-09T18:26:08.697Z,94.10
2024-05-09T18:28:36.379Z,94.10
2024-05-09T18:31:06.828Z,95.20
2024-05-09T18:33:34.702Z,95.70
2024-05-09T18:36:08.046Z,95.90
2024-05-09T18:38:36.076Z,96.20
2024-05-09T18:41:07.847Z,95.20
2024-05-09T18:43:42.184Z,95.10
2024-05-09T18:46:15.948Z,95.20
2024-05-09T18:48:43.882Z,95.50
2024-05-09T18:51:17.101Z,96.10
2024-05-09T18:53:45.209Z,96.50
2024-05-09T18:56:15.526Z,96.50
2024-05-09T18:58:43.502Z,97.50
2024-05-09T19:01:14.594Z,98.30
2024-05-09T19:03:43.018Z,98.80
2024-05-09T19:06:17.313Z,99.20
2024-05-09T19:08:45.863Z,99.40
2024-05-09T19:11:16.242Z,99.20
2024-05-09T19:13:44.179Z,98.70
2024-05-09T19:16:14.650Z,99.00
2024-05-09T19:18:42.653Z,98.60
2024-05-09T19:21:14.367Z,98.60
2024-05-09T19:23:50.811Z,98.80
2024-05-09T19:26:25.279Z,99.30
2024-05-09T19:28:53.492Z,99.90
2024-05-09T19:31:24.166Z,99.90
2024-05-09T19:33:52.068Z,99.90
2024-05-09T19:36:22.559Z,99.90
2024-05-09T19:38:53.219Z,99.90
2024-05-09T19:41:23.930Z,99.90
2024-05-09T19:43:51.600Z,99.90
2024-05-09T19:46:27.043Z,99.90
2024-05-09T19:48:55.647Z,99.90
2024-05-09T19:51:26.119Z,99.90
2024-05-09T19:53:56.356Z,99.90
2024-05-09T19:56:27.411Z,99.90
2024-05-09T19:58:55.258Z,99.90
2024-05-09T20:01:25.536Z,99.90
2024-05-09T20:03:53.467Z,99.90
2024-05-09T20:06:26.347Z,99.90
2024-05-09T20:08:58.359Z,99.90
2024-05-09T20:11:30.830Z,99.90
2024-05-09T20:13:58.707Z,99.90
2024-05-09T20:16:29.135Z,99.90
2024-05-09T20:18:59.711Z,99.90
2024-05-09T20:21:30.115Z,99.90
2024-05-09T20:24:00.525Z,99.90
2024-05-09T20:26:31.270Z,99.90
2024-05-09T20:28:58.970Z,99.90
2024-05-09T20:31:29.383Z,99.90
2024-05-09T20:33:57.320Z,99.90
2024-05-09T20:36:27.661Z,99.90
2024-05-09T20:38:55.385Z,99.90
2024-05-09T20:41:28.363Z,99.90
2024-05-09T20:43:58.211Z,99.90
2024-05-09T20:46:28.465Z,99.90
2024-05-09T20:48:56.711Z,99.90
2024-05-09T20:51:27.677Z,99.90
2024-05-09T20:53:58.487Z,99.90
2024-05-09T20:56:28.794Z,99.90
2024-05-09T20:59:00.591Z,99.90
2024-05-09T21:01:28.484Z,99.90
2024-05-09T21:03:58.998Z,99.90
2024-05-09T21:06:26.783Z,99.90
2024-05-09T21:08:58.472Z,99.90
2024-05-09T21:11:28.766Z,99.90
2024-05-09T21:13:59.072Z,99.90
2024-05-09T21:16:26.823Z,99.90
2024-05-09T21:18:57.062Z,99.90
2024-05-09T21:21:24.725Z,99.90
2024-05-09T21:23:54.988Z,99.90
2024-05-09T21:26:23.898Z,99.90
2024-05-09T21:28:57.132Z,99.90
2024-05-09T21:31:24.757Z,99.90
2024-05-09T21:33:55.212Z,99.90
2024-05-09T21:36:23.103Z,99.90
2024-05-09T21:38:53.258Z,99.90
2024-05-09T21:41:22.295Z,99.90
2024-05-09T21:43:52.508Z,99.90
2024-05-09T21:46:22.726Z,99.90
2024-05-09T21:48:53.162Z,99.90
2024-05-09T21:51:20.850Z,99.90
2024-05-09T21:53:51.812Z,99.90
2024-05-09T21:56:19.481Z,99.90
2024-05-09T21:58:49.727Z,99.90
2024-05-09T22:01:17.592Z,99.90
2024-05-09T22:03:50.772Z,99.90
2024-05-09T22:06:18.487Z,99.90
2024-05-09T22:08:48.885Z,99.90
2024-05-09T22:11:16.508Z,99.90
2024-05-09T22:13:46.926Z,99.90
2024-05-09T22:16:14.642Z,99.90
2024-05-09T22:18:45.713Z,99.90
2024-05-09T22:21:15.955Z,99.90
2024-05-09T22:23:46.180Z,99.90
2024-05-09T22:26:13.706Z,99.90
2024-05-09T22:28:44.151Z,99.90
2024-05-09T22:31:11.867Z,99.90
2024-05-09T22:33:45.538Z,99.90
2024-05-09T22:36:17.382Z,99.90
2024-05-09T22:38:47.534Z,99.90
2024-05-09T22:41:15.137Z,99.90
2024-05-09T22:43:45.464Z,99.90
2024-05-09T22:46:13.311Z,99.90
2024-05-09T22:48:43.937Z,99.90
2024-05-09T22:51:13.199Z,99.90
2024-05-09T22:53:46.036Z,99.90
2024-05-09T22:56:15.938Z,99.90
2024-05-09T22:58:46.248Z,99.90
2024-05-09T23:01:16.080Z,99.90
2024-05-09T23:03:46.770Z,99.90
2024-05-09T23:06:14.841Z,99.90
2024-05-09T23:08:47.990Z,99.90
2024-05-09T23:11:18.202Z,99.90
2024-05-09T23:13:45.870Z,99.90
2024-05-09T23:16:16.241Z,99.90
2024-05-09T23:18:44.063Z,99.90
2024-05-09T23:21:14.365Z,99.90
2024-05-09T23:23:45.702Z,99.90
2024-05-09T23:26:15.959Z,99.90
2024-05-09T23:31:14.260Z,99.90
2024-05-09T23:33:46.494Z,99.90
2024-05-09T23:36:17.141Z,99.90
2024-05-09T23:38:47.564Z,99.90
2024-05-09T23:41:17.835Z,99.90
2024-05-09T23:43:45.534Z,99.90
2024-05-09T23:46:15.966Z,99.90
2024-05-09T23:48:43.844Z,99.90
2024-05-09T23:51:14.459Z,99.90
2024-05-09T23:53:47.601Z,99.90
2024-05-09T23:56:18.742Z,99.90
2024-05-09T23:58:47.306Z,99.90
